Time;durP1;ratioP1;P1;durP2;ratioP2;P2;SDS_P1;SDS_P2;PMS_P1;PMS_P2;Temp;Humidity;BMP_temperature;BMP_pressure;BME280_temperature;BME280_humidity;BME280_pressure;Samples;Min_cycle;Max_cycle;Signal;HPM_P1;HPM_P2
2022/12/17 13:07:29;;;;;;;44.65;21.63;;;1.50;99.90;;;;;;6173190;23;20033;-82
2022/12/17 13:09:57;;;;;;;59.75;32.63;;;1.00;99.90;;;;;;6123249;23;20083;-82
2022/12/17 13:12:44;;;;;;;186.15;121.30;;;1.60;99.90;;;;;;6147897;23;20025;-82
2022/12/17 13:15:19;;;;;;;114.63;73.57;;;1.00;99.90;;;;;;6123333;23;20021;-81
2022/12/17 13:17:56;;;;;;;55.60;26.52;;;2.50;99.90;;;;;;6123557;23;20484;-82
2022/12/17 13:20:31;;;;;;;81.10;45.58;;;1.00;99.90;;;;;;6122900;23;20041;-82
2022/12/17 13:23:29;;;;;;;48.45;24.50;;;1.00;99.90;;;;;;6147983;23;20022;-82
2022/12/17 13:26:13;;;;;;;48.28;23.63;;;1.00;99.90;;;;;;6097402;23;20025;-82
2022/12/17 13:28:40;;;;;;;40.78;22.33;;;1.00;99.90;;;;;;6098545;23;20445;-81
2022/12/17 13:31:16;;;;;;;48.75;23.83;;;1.00;99.90;;;;;;6124027;23;20052;-82
2022/12/17 13:34:08;;;;;;;47.45;22.55;;;0.90;99.90;;;;;;6123163;23;20021;-83
2022/12/17 13:36:41;;;;;;;46.63;23.13;;;0.90;99.90;;;;;;6116624;23;20511;-83
2022/12/17 13:39:19;;;;;;;44.20;22.08;;;1.00;99.90;;;;;;6123356;23;20072;-82
2022/12/17 13:41:45;;;;;;;45.40;22.58;;;0.90;99.90;;;;;;6098686;23;20021;-82
2022/12/17 13:44:19;;;;;;;41.63;21.63;;;0.80;99.90;;;;;;6123647;23;20483;-83
2022/12/17 13:46:49;;;;;;;47.33;23.33;;;0.80;99.90;;;;;;6147232;23;20021;-82
2022/12/17 13:49:25;;;;;;;48.67;23.77;;;2.00;99.90;;;;;;6146429;23;20060;-82
2022/12/17 13:52:13;;;;;;;50.55;24.17;;;0.80;99.90;;;;;;6121791;23;20025;-82
2022/12/17 13:54:39;;;;;;;45.00;23.15;;;0.80;99.90;;;;;;6098497;23;20077;-82
2022/12/17 13:57:07;;;;;;;59.58;34.03;;;0.70;99.90;;;;;;6122594;23;20083;-82
2022/12/17 13:59:33;;;;;;;44.53;22.77;;;1.90;99.90;;;;;;6123678;23;20017;-82
2022/12/17 14:01:59;;;;;;;46.97;22.92;;;1.80;99.90;;;;;;6147288;23;20105;-82
2022/12/17 14:04:27;;;;;;;56.13;24.30;;;1.20;99.90;;;;;;6123030;23;20781;-82
2022/12/17 14:07:02;;;;;;;44.03;22.00;;;0.60;99.90;;;;;;6147315;23;20021;-82
2022/12/17 14:09:39;;;;;;;43.58;21.35;;;1.90;99.90;;;;;;6123343;23;20017;-82
2022/12/17 14:12:21;;;;;;;53.00;23.90;;;1.30;99.90;;;;;;6122028;23;20456;-82
2022/12/17 14:15:02;;;;;;;46.58;24.17;;;0.50;99.90;;;;;;6123299;23;20060;-82
2022/12/17 14:17:37;;;;;;;46.95;22.65;;;0.50;99.90;;;;;;6123581;23;20025;-82
2022/12/17 14:20:24;;;;;;;48.05;23.40;;;0.50;99.90;;;;;;6123228;23;20018;-81
2022/12/17 14:22:53;;;;;;;44.70;21.80;;;0.50;99.90;;;;;;6122961;23;20120;-82
2022/12/17 14:25:34;;;;;;;45.25;22.55;;;0.60;99.90;;;;;;6147796;23;20013;-82
2022/12/17 14:28:04;;;;;;;45.55;22.08;;;-0.10;99.90;;;;;;6122703;23;20524;-82
2022/12/17 14:30:39;;;;;;;54.47;23.90;;;0.60;99.90;;;;;;6098932;23;20018;-82
2022/12/17 14:33:23;;;;;;;45.38;22.67;;;0.30;99.90;;;;;;6097599;23;20025;-82
2022/12/17 14:35:53;;;;;;;43.20;21.75;;;2.00;99.90;;;;;;6123353;23;20021;-82
2022/12/17 14:38:20;;;;;;;51.42;22.98;;;0.30;99.90;;;;;;6098856;23;20021;-82
2022/12/17 14:40:46;;;;;;;43.28;22.13;;;1.50;99.90;;;;;;6122470;23;20065;-82
2022/12/17 14:43:13;;;;;;;47.75;23.55;;;0.20;99.90;;;;;;6098264;23;20021;-82
2022/12/17 14:51:41;;;;;;;52.38;23.83;;;0.10;99.90;;;;;;6122857;23;20025;-80
2022/12/17 14:54:13;;;;;;;48.13;23.42;;;1.50;99.90;;;;;;6096547;23;20048;-82
2022/12/17 14:56:40;;;;;;;41.83;21.60;;;-1.10;99.90;;;;;;6098101;23;20028;-81
2022/12/17 14:59:22;;;;;;;47.55;21.90;;;0.50;99.90;;;;;;6123970;23;20013;-82
2022/12/17 15:01:48;;;;;;;47.85;21.27;;;;;;;;;;6123469;23;20024;-82
2022/12/17 15:04:15;;;;;;;50.80;22.85;;;-0.10;99.90;;;;;;6124392;23;20033;-82
2022/12/17 15:06:41;;;;;;;44.58;20.90;;;0.60;99.90;;;;;;6123411;23;20108;-81
2022/12/17 15:09:13;;;;;;;47.08;22.77;;;-0.20;99.90;;;;;;6098808;23;20345;-83
2022/12/17 15:11:39;;;;;;;52.50;23.38;;;-0.10;99.90;;;;;;6124264;23;20021;-81
2022/12/17 15:14:04;;;;;;;49.25;22.58;;;1.70;99.90;;;;;;6121499;23;20040;-86
2022/12/17 15:16:30;;;;;;;46.85;22.77;;;1.70;99.90;;;;;;6126630;23;20096;-83
2022/12/17 15:18:56;;;;;;;51.47;22.67;;;-1.90;99.90;;;;;;6125063;23;20020;-80
2022/12/17 15:21:24;;;;;;;50.75;22.92;;;2.00;99.90;;;;;;6101714;23;20060;-81
2022/12/17 15:23:50;;;;;;;51.72;22.63;;;;;;;;;;6098585;23;20025;-80
2022/12/17 15:26:16;;;;;;;50.67;24.20;;;-0.30;99.90;;;;;;6096187;23;20018;-81
2022/12/17 15:28:42;;;;;;;52.78;22.73;;;0.60;99.90;;;;;;6122900;23;20350;-81
2022/12/17 15:31:12;;;;;;;53.28;24.13;;;1.70;99.90;;;;;;6121265;23;20021;-82
2022/12/17 15:33:39;;;;;;;44.78;24.27;;;-0.30;99.90;;;;;;6097458;23;20022;-81
2022/12/17 15:36:05;;;;;;;54.35;23.67;;;0.60;99.90;;;;;;6121112;23;20092;-82
2022/12/17 15:38:31;;;;;;;51.03;25.70;;;-0.40;99.90;;;;;;6096439;23;20021;-82
2022/12/17 15:43:09;;;;;;;51.03;26.40;;;0.20;99.90;;;;;;6095398;23;20461;-82
2022/12/17 15:43:50;;;;;;;60.63;26.60;;;-0.20;99.90;;;;;;6146539;23;20030;-81
2022/12/17 15:46:17;;;;;;;64.20;31.48;;;1.40;99.90;;;;;;6096663;23;20068;-82
2022/12/17 15:48:42;;;;;;;98.55;54.38;;;-0.30;99.90;;;;;;6123204;23;20080;-81
2022/12/17 15:51:08;;;;;;;75.85;36.60;;;0.10;99.90;;;;;;6123122;23;20445;-81
2022/12/17 15:53:34;;;;;;;58.33;23.95;;;-0.20;99.90;;;;;;6123628;23;20014;-81
2022/12/17 15:56:01;;;;;;;63.88;28.52;;;0.50;99.90;;;;;;6097515;23;20179;-81
2022/12/17 15:58:28;;;;;;;52.88;23.75;;;-0.10;99.90;;;;;;6122893;23;20021;-81
2022/12/17 16:00:53;;;;;;;57.88;24.60;;;1.20;99.90;;;;;;6098421;23;20504;-81
2022/12/17 16:03:19;;;;;;;52.10;23.92;;;-0.40;99.90;;;;;;6096421;23;20124;-81
2022/12/17 16:05:45;;;;;;;58.63;25.55;;;1.00;99.90;;;;;;6098343;23;20021;-82
2022/12/17 16:08:11;;;;;;;51.88;24.30;;;0.90;99.90;;;;;;6120844;23;20021;-81
2022/12/17 16:10:37;;;;;;;58.25;26.27;;;-0.40;99.90;;;;;;6122180;23;20022;-82
2022/12/17 16:13:03;;;;;;;59.63;25.58;;;-0.40;99.90;;;;;;6098066;23;20029;-82
2022/12/17 16:15:29;;;;;;;55.80;25.90;;;0.00;99.90;;;;;;6122485;23;20049;-82
2022/12/17 16:17:55;;;;;;;55.00;23.80;;;-0.50;99.90;;;;;;6123227;23;20018;-81
2022/12/17 16:20:21;;;;;;;51.03;25.60;;;-0.50;99.90;;;;;;6098684;23;20310;-81
2022/12/17 16:22:47;;;;;;;56.47;25.15;;;1.20;99.90;;;;;;6122416;23;20025;-82
2022/12/17 16:25:13;;;;;;;52.95;24.15;;;-0.50;99.90;;;;;;6123395;23;20036;-82
2022/12/17 16:27:38;;;;;;;53.13;24.60;;;-0.60;99.90;;;;;;6122298;23;20021;-82
2022/12/17 16:30:05;;;;;;;51.20;23.15;;;-0.30;99.90;;;;;;6098514;23;20080;-84
2022/12/17 16:32:32;;;;;;;51.75;24.27;;;-0.60;99.90;;;;;;6123162;23;20025;-82
2022/12/17 16:34:57;;;;;;;57.10;25.75;;;1.20;99.90;;;;;;6126739;23;20060;-81
2022/12/17 16:37:23;;;;;;;59.25;25.77;;;-0.70;99.90;;;;;;6104987;23;20025;-82
2022/12/17 16:39:50;;;;;;;53.83;23.60;;;1.10;99.90;;;;;;6126253;23;20025;-82
2022/12/17 16:42:16;;;;;;;56.70;23.55;;;1.00;99.90;;;;;;6121033;23;20025;-83
2022/12/17 16:44:41;;;;;;;55.42;25.02;;;-0.60;99.90;;;;;;6122525;23;20033;-82
2022/12/17 16:47:08;;;;;;;57.50;24.58;;;-0.70;99.90;;;;;;6121106;23;20025;-82
2022/12/17 16:49:34;;;;;;;58.92;24.17;;;1.10;99.90;;;;;;6118893;23;20021;-82
2022/12/17 16:52:02;;;;;;;52.33;23.83;;;-0.80;99.90;;;;;;6117976;23;20161;-83
2022/12/17 16:54:30;;;;;;;54.10;23.90;;;-0.80;99.90;;;;;;6095791;23;20032;-82
2022/12/17 16:56:56;;;;;;;54.28;23.55;;;-0.80;99.90;;;;;;6094191;23;20120;-81
2022/12/17 16:59:22;;;;;;;51.72;23.02;;;0.90;99.90;;;;;;6092846;23;20100;-82
2022/12/17 17:01:49;;;;;;;52.17;23.85;;;-0.90;99.90;;;;;;6117743;23;20018;-81
2022/12/17 17:04:17;;;;;;;57.60;25.40;;;-0.90;99.90;;;;;;6143278;23;20018;-82
2022/12/17 17:06:46;;;;;;;139.07;77.05;;;-0.90;99.90;;;;;;6121256;23;20088;-82
2022/12/17 17:09:15;;;;;;;63.00;28.40;;;0.30;99.90;;;;;;6096516;23;20084;-82
2022/12/17 17:11:41;;;;;;;60.03;26.08;;;-0.90;99.90;;;;;;6093596;23;20068;-82
2022/12/17 17:14:08;;;;;;;58.83;26.35;;;-1.00;99.90;;;;;;6121541;23;20524;-82
2022/12/17 17:16:34;;;;;;;59.10;24.90;;;0.80;99.90;;;;;;6146292;23;20100;-83
2022/12/17 17:19:00;;;;;;;59.10;27.23;;;-0.60;99.90;;;;;;6120594;23;20110;-81
2022/12/17 17:21:37;;;;;;;60.17;25.98;;;-1.00;99.90;;;;;;6142115;23;20022;-83
2022/12/17 17:24:13;;;;;;;58.08;24.58;;;-1.00;99.90;;;;;;6116672;23;20489;-82
2022/12/17 17:26:39;;;;;;;58.25;26.08;;;0.20;99.90;;;;;;6144456;23;20022;-82
2022/12/17 17:29:05;;;;;;;63.70;24.38;;;0.80;99.90;;;;;;6120986;23;20029;-81
2022/12/17 17:31:32;;;;;;;57.92;24.67;;;1.20;99.90;;;;;;6121088;23;20021;-83
2022/12/17 17:33:57;;;;;;;61.03;27.92;;;-1.00;99.90;;;;;;6122053;23;20021;-82
2022/12/17 17:36:26;;;;;;;60.90;25.45;;;-1.00;99.90;;;;;;6121288;23;20013;-82
2022/12/17 17:38:57;;;;;;;57.20;25.25;;;0.20;99.90;;;;;;6122073;23;20014;-81
2022/12/17 17:41:28;;;;;;;60.58;27.88;;;-1.00;99.90;;;;;;6097087;23;20036;-82
2022/12/17 17:44:00;;;;;;;83.45;37.58;;;-1.00;99.90;;;;;;6122247;23;20022;-82
2022/12/17 17:46:27;;;;;;;152.63;74.00;;;-1.00;99.90;;;;;;6121403;23;20025;-81
2022/12/17 17:48:56;;;;;;;73.78;34.40;;;0.00;99.90;;;;;;6146569;23;20064;-82
2022/12/17 17:51:25;;;;;;;63.88;26.13;;;-0.60;99.90;;;;;;6119997;23;20097;-81
2022/12/17 17:53:53;;;;;;;75.45;32.08;;;0.60;99.90;;;;;;6096350;23;20053;-81
2022/12/17 17:56:22;;;;;;;81.38;37.17;;;-1.00;99.90;;;;;;6120285;23;20037;-82
2022/12/17 17:59:00;;;;;;;61.35;28.27;;;-1.00;99.90;;;;;;6120619;23;20460;-82
2022/12/17 18:01:28;;;;;;;60.72;24.77;;;-1.00;99.90;;;;;;6120432;23;20100;-81
2022/12/17 18:03:57;;;;;;;63.17;25.92;;;0.00;99.90;;;;;;6121284;23;20036;-81
2022/12/17 18:06:23;;;;;;;58.00;24.85;;;-1.10;99.90;;;;;;6096037;23;20030;-81
2022/12/17 18:08:51;;;;;;;58.55;25.15;;;0.60;99.90;;;;;;6096813;23;20080;-81
2022/12/17 18:11:19;;;;;;;60.83;25.58;;;-1.10;99.90;;;;;;6096694;23;20352;-81
2022/12/17 18:13:54;;;;;;;60.08;24.27;;;-1.10;99.90;;;;;;6097600;23;20052;-82
2022/12/17 18:16:36;;;;;;;60.03;23.40;;;-1.10;99.90;;;;;;6121895;23;20377;-81
2022/12/17 18:19:05;;;;;;;58.97;25.02;;;-0.80;99.90;;;;;;6122163;23;20412;-81
2022/12/17 18:21:31;;;;;;;63.05;25.10;;;-0.20;99.90;;;;;;6097226;23;20072;-80
2022/12/17 18:24:00;;;;;;;62.53;26.40;;;-1.10;99.90;;;;;;6122263;23;20029;-82
2022/12/17 18:26:29;;;;;;;61.60;26.58;;;-0.90;99.90;;;;;;6096970;23;20021;-82
2022/12/17 18:28:55;;;;;;;62.85;25.92;;;-0.20;99.90;;;;;;6098439;23;20024;-83
2022/12/17 18:31:24;;;;;;;55.83;23.45;;;0.00;99.90;;;;;;6123893;23;20208;-82
2022/12/17 18:33:57;;;;;;;61.75;25.20;;;-0.70;99.90;;;;;;6148804;23;20045;-81
2022/12/17 18:36:37;;;;;;;60.75;24.73;;;0.00;99.90;;;;;;6122653;23;20113;-83
2022/12/17 18:39:10;;;;;;;60.95;24.38;;;-1.10;99.90;;;;;;6120916;23;20108;-84
2022/12/17 18:44:21;;;;;;;55.83;22.52;;;-1.00;99.90;;;;;;6119655;23;20051;-83
2022/12/17 18:46:47;;;;;;;61.50;26.45;;;-1.10;99.90;;;;;;6098074;23;20380;-82
2022/12/17 18:49:15;;;;;;;57.03;24.23;;;-0.30;99.90;;;;;;6097627;23;20134;-82
2022/12/17 18:51:44;;;;;;;61.00;25.55;;;-1.10;99.90;;;;;;6120607;23;20017;-82
2022/12/17 18:54:19;;;;;;;56.17;23.67;;;-0.10;99.90;;;;;;6144590;23;20014;-82
2022/12/17 18:56:45;;;;;;;58.05;24.30;;;-1.20;99.90;;;;;;6095695;23;20025;-81
2022/12/17 18:59:12;;;;;;;58.58;23.77;;;-1.20;99.90;;;;;;6120347;23;20464;-81
2022/12/17 19:01:38;;;;;;;61.03;25.73;;;0.00;99.90;;;;;;6095272;23;20099;-81
2022/12/17 19:04:06;;;;;;;63.15;24.25;;;-1.30;99.90;;;;;;6120201;23;20028;-81
2022/12/17 19:06:34;;;;;;;56.17;22.25;;;0.20;99.90;;;;;;6095499;23;20091;-81
2022/12/17 19:09:00;;;;;;;55.63;23.48;;;-1.30;99.90;;;;;;6095487;23;20092;-81
2022/12/17 19:11:26;;;;;;;62.40;25.88;;;0.10;99.90;;;;;;6118978;23;20076;-81
2022/12/17 19:13:52;;;;;;;57.83;24.77;;;-1.40;99.90;;;;;;6118743;23;20230;-81
2022/12/17 19:16:21;;;;;;;56.28;23.88;;;-0.10;99.90;;;;;;6119831;23;20392;-82
2022/12/17 19:18:52;;;;;;;55.58;23.23;;;-1.40;99.90;;;;;;6121369;23;20013;-82
2022/12/17 19:21:22;;;;;;;56.05;24.60;;;-1.10;99.90;;;;;;6145505;23;20439;-82
2022/12/17 19:23:48;;;;;;;65.82;27.45;;;-1.40;99.90;;;;;;6121938;23;20024;-81
2022/12/17 19:26:17;;;;;;;61.38;25.35;;;0.30;99.90;;;;;;6121505;23;20032;-82
2022/12/17 19:28:45;;;;;;;58.72;24.15;;;-1.50;99.90;;;;;;6120823;23;20017;-82
2022/12/17 19:31:11;;;;;;;55.72;24.48;;;-0.90;99.90;;;;;;6097523;23;20092;-82
2022/12/17 19:33:37;;;;;;;55.28;23.95;;;-1.20;99.90;;;;;;6096383;23;20025;-81
2022/12/17 19:36:15;;;;;;;61.15;24.58;;;-1.50;99.90;;;;;;6098217;23;20028;-82
2022/12/17 19:38:41;;;;;;;53.47;23.65;;;-1.60;99.90;;;;;;6123390;23;20105;-82
2022/12/17 19:41:16;;;;;;;60.50;24.90;;;-1.60;99.90;;;;;;6097617;23;20026;-82
2022/12/17 19:43:47;;;;;;;59.60;23.85;;;-1.30;99.90;;;;;;6146054;23;20044;-82
2022/12/17 19:46:15;;;;;;;53.33;24.48;;;0.50;99.90;;;;;;6099902;23;20108;-82
2022/12/17 19:48:42;;;;;;;57.05;25.95;;;-1.60;99.90;;;;;;6122078;23;20021;-82
2022/12/17 19:51:10;;;;;;;58.42;24.13;;;-1.70;99.90;;;;;;6122215;23;20024;-81
2022/12/17 19:53:38;;;;;;;60.50;25.55;;;-1.70;99.90;;;;;;6097177;23;20021;-81
2022/12/17 19:56:24;;;;;;;59.53;24.75;;;-1.60;99.90;;;;;;6145921;23;20032;-81
2022/12/17 19:58:55;;;;;;;66.65;26.08;;;-1.70;99.90;;;;;;6097224;23;20017;-82
2022/12/17 20:01:27;;;;;;;66.05;27.35;;;-1.70;99.90;;;;;;6098629;23;20033;-82
2022/12/17 20:03:54;;;;;;;63.33;24.45;;;-1.70;99.90;;;;;;6124497;23;20034;-82
2022/12/17 20:06:22;;;;;;;59.08;23.90;;;-1.70;99.90;;;;;;6106059;23;20052;-82
2022/12/17 20:08:48;;;;;;;67.30;24.42;;;-1.80;99.90;;;;;;6148394;23;20093;-81
2022/12/17 20:11:34;;;;;;;59.97;24.13;;;-0.40;99.90;;;;;;6096758;23;20100;-82
2022/12/17 20:14:02;;;;;;;72.60;25.42;;;-0.60;99.90;;;;;;6121921;23;20018;-82
2022/12/17 20:16:30;;;;;;;60.22;23.83;;;-1.80;99.90;;;;;;6097131;23;20021;-81
2022/12/17 20:19:00;;;;;;;63.17;25.80;;;-1.70;99.90;;;;;;6145588;23;20053;-82
2022/12/17 20:21:27;;;;;;;54.13;24.02;;;-2.20;99.90;;;;;;6096778;23;20026;-82
2022/12/17 20:23:53;;;;;;;67.22;26.00;;;-1.80;99.90;;;;;;6145543;23;20124;-81
2022/12/17 20:26:21;;;;;;;66.88;25.58;;;-1.80;99.90;;;;;;6096979;23;20068;-82
2022/12/17 20:28:47;;;;;;;64.95;24.13;;;-1.80;99.90;;;;;;6097052;23;20425;-80
2022/12/17 20:31:13;;;;;;;67.18;26.15;;;-1.80;99.90;;;;;;6121308;23;20032;-82
2022/12/17 20:33:39;;;;;;;64.40;26.42;;;0.00;99.90;;;;;;6121248;23;20035;-85
2022/12/17 20:36:06;;;;;;;58.78;25.33;;;-1.80;99.90;;;;;;6121295;23;20457;-82
2022/12/17 20:38:32;;;;;;;60.50;25.20;;;-1.90;99.90;;;;;;6096912;23;20018;-82
2022/12/17 20:40:58;;;;;;;61.42;25.73;;;-1.00;99.90;;;;;;6146468;23;20025;-82
2022/12/17 20:43:24;;;;;;;65.90;25.42;;;-0.80;99.90;;;;;;6120774;23;20025;-81
2022/12/17 20:45:53;;;;;;;65.07;24.90;;;-1.90;99.90;;;;;;6119806;23;20151;-82
2022/12/17 20:48:23;;;;;;;57.35;23.30;;;0.10;99.90;;;;;;6121004;23;20028;-82
2022/12/17 20:50:49;;;;;;;68.57;26.65;;;0.20;99.90;;;;;;6121315;23;20014;-81
2022/12/17 20:53:15;;;;;;;56.92;23.45;;;-0.70;99.90;;;;;;6120884;23;20096;-81
2022/12/17 20:55:45;;;;;;;62.78;25.58;;;-1.90;99.90;;;;;;6095630;23;20090;-81
2022/12/17 20:58:12;;;;;;;65.28;24.08;;;-2.00;99.90;;;;;;6144918;23;20048;-82
2022/12/17 21:00:39;;;;;;;64.13;24.85;;;-0.40;99.90;;;;;;6144277;23;20467;-82
2022/12/17 21:03:05;;;;;;;62.90;22.23;;;-0.50;99.90;;;;;;6120397;23;20021;-81
2022/12/17 21:05:34;;;;;;;60.50;24.65;;;-1.90;99.90;;;;;;6120740;23;20096;-81
2022/12/17 21:08:00;;;;;;;65.65;25.15;;;-1.70;99.90;;;;;;6092161;23;20030;-81
2022/12/17 21:10:26;;;;;;;68.45;26.25;;;-0.20;99.90;;;;;;6144988;23;20021;-81
2022/12/17 21:15:36;;;;;;;59.20;24.35;;;-0.40;99.90;;;;;;6169970;23;20025;-81
2022/12/17 21:18:01;;;;;;;53.38;22.23;;;-2.00;99.90;;;;;;6167611;23;20072;-82
2022/12/17 21:20:27;;;;;;;59.33;23.92;;;-2.10;99.90;;;;;;6169570;23;20483;-80
2022/12/17 21:22:53;;;;;;;62.10;24.15;;;-2.10;99.90;;;;;;6168515;23;20031;-80
2022/12/17 21:25:19;;;;;;;62.22;23.75;;;-0.40;99.90;;;;;;6145986;23;20034;-81
2022/12/17 21:27:44;;;;;;;68.25;25.15;;;-0.60;99.90;;;;;;6146326;23;20495;-80
2022/12/17 21:30:10;;;;;;;62.10;23.92;;;0.00;99.90;;;;;;6147767;23;20140;-81
2022/12/17 21:32:36;;;;;;;57.17;22.20;;;-2.10;99.90;;;;;;6098869;23;20022;-81
2022/12/17 21:35:02;;;;;;;60.58;24.35;;;-2.10;99.90;;;;;;6095720;23;20028;-81
2022/12/17 21:37:28;;;;;;;59.85;25.17;;;-2.20;99.90;;;;;;6169788;23;20013;-81
2022/12/17 21:39:53;;;;;;;60.53;23.38;;;-2.00;99.90;;;;;;6141740;23;20344;-80
2022/12/17 21:45:04;;;;;;;58.30;24.17;;;-0.40;99.90;;;;;;6121026;23;20025;-80
2022/12/17 21:47:29;;;;;;;61.47;25.73;;;-2.70;99.90;;;;;;6120026;23;20021;-80
2022/12/17 21:49:55;;;;;;;59.70;24.60;;;-0.40;99.90;;;;;;6118475;23;20028;-81
2022/12/17 21:52:21;;;;;;;61.63;24.60;;;-0.80;99.90;;;;;;6143033;23;20520;-80
2022/12/17 21:54:47;;;;;;;55.22;23.65;;;-0.60;99.90;;;;;;6094842;23;20034;-81
2022/12/17 21:57:13;;;;;;;64.20;24.90;;;-2.20;99.90;;;;;;6141674;23;20025;-81
2022/12/17 21:59:40;;;;;;;59.10;23.25;;;-0.90;99.90;;;;;;6119064;23;20018;-80
2022/12/17 22:02:06;;;;;;;66.90;25.13;;;-1.20;99.90;;;;;;6167394;23;20339;-81
2022/12/17 22:04:31;;;;;;;64.85;25.08;;;-2.40;99.90;;;;;;6094531;23;20433;-81
2022/12/17 22:07:00;;;;;;;61.55;24.90;;;-1.00;99.90;;;;;;6167550;23;20028;-81
2022/12/17 22:09:25;;;;;;;58.78;25.30;;;-2.30;99.90;;;;;;6115653;23;20028;-81
2022/12/17 22:14:01;;;;;;;63.22;25.83;;;-1.50;99.90;;;;;;6093363;23;20388;-82
2022/12/17 22:14:37;;;;;;;63.10;24.50;;;-1.40;99.90;;;;;;6118203;23;20022;-82
2022/12/17 22:17:03;;;;;;;58.10;24.02;;;-2.40;99.90;;;;;;6094598;23;20067;-81
2022/12/17 22:19:28;;;;;;;65.45;25.27;;;-2.60;99.90;;;;;;6092802;23;20100;-81
2022/12/17 22:21:54;;;;;;;57.53;23.33;;;-0.90;99.90;;;;;;6093968;23;20108;-81
2022/12/17 22:24:21;;;;;;;59.85;24.38;;;-2.40;99.90;;;;;;6092928;23;20025;-82
2022/12/17 22:26:47;;;;;;;60.92;23.08;;;-0.80;99.90;;;;;;6114996;23;20022;-82
2022/12/17 22:32:58;;;;;;;58.25;23.35;;;-2.50;99.90;;;;;;6116163;23;20135;-81
2022/12/17 22:34:46;;;;;;;62.67;23.95;;;-2.00;99.90;;;;;;6117763;23;20026;-81
2022/12/17 22:37:12;;;;;;;60.45;24.58;;;-2.20;99.90;;;;;;6116223;23;20112;-80
2022/12/17 22:39:38;;;;;;;64.82;25.10;;;-1.90;99.90;;;;;;6115805;23;20441;-81
2022/12/17 22:44:48;;;;;;;64.75;25.05;;;-2.50;99.90;;;;;;6117188;23;20028;-80
2022/12/17 22:47:14;;;;;;;65.78;24.58;;;-2.60;99.90;;;;;;6092711;23;20025;-81
2022/12/17 22:49:39;;;;;;;59.50;23.52;;;-1.40;99.90;;;;;;6094564;23;20176;-81
2022/12/17 22:52:05;;;;;;;64.35;23.85;;;-2.40;99.90;;;;;;6118435;23;20021;-81
2022/12/17 22:54:31;;;;;;;57.50;23.17;;;-1.80;99.90;;;;;;6118620;23;20048;-81
2022/12/17 22:56:57;;;;;;;52.45;23.20;;;-2.60;99.90;;;;;;6093709;23;20021;-81
2022/12/17 22:59:22;;;;;;;68.43;24.92;;;-1.50;99.90;;;;;;6094240;23;20018;-81
2022/12/17 23:01:48;;;;;;;61.47;23.58;;;-2.10;99.90;;;;;;6118646;23;20018;-80
2022/12/17 23:04:15;;;;;;;60.72;25.10;;;-2.60;99.90;;;;;;6094211;23;20087;-81
2022/12/17 23:06:44;;;;;;;61.00;23.33;;;-2.10;99.90;;;;;;6118329;23;20440;-80
2022/12/17 23:09:10;;;;;;;64.95;23.58;;;-0.90;99.90;;;;;;6118279;23;20021;-80
2022/12/17 23:11:36;;;;;;;59.90;25.48;;;-0.60;99.90;;;;;;6094025;23;20021;-80
2022/12/17 23:14:02;;;;;;;60.83;24.85;;;-0.50;99.90;;;;;;6093841;23;20017;-81
2022/12/17 23:16:27;;;;;;;64.03;23.27;;;-1.60;99.90;;;;;;6145088;23;20622;-81
2022/12/17 23:18:54;;;;;;;62.53;23.58;;;-2.70;99.90;;;;;;6121678;23;20021;-81
2022/12/17 23:21:24;;;;;;;63.70;24.33;;;-2.10;99.90;;;;;;6096555;23;20017;-81
2022/12/17 23:23:54;;;;;;;68.97;25.00;;;-0.90;99.90;;;;;;6122113;23;20073;-81
2022/12/17 23:26:27;;;;;;;67.20;26.95;;;-2.70;99.90;;;;;;6121455;23;20144;-81
2022/12/17 23:28:58;;;;;;;59.10;25.00;;;-2.70;99.90;;;;;;6122543;23;20021;-81
2022/12/17 23:31:25;;;;;;;60.20;24.90;;;-2.80;99.90;;;;;;6122167;23;20025;-80
2022/12/17 23:33:51;;;;;;;55.40;22.95;;;-2.00;99.90;;;;;;6097096;23;20026;-81
2022/12/17 23:36:20;;;;;;;65.32;24.05;;;-1.20;99.90;;;;;;6145134;23;20036;-81
2022/12/17 23:38:46;;;;;;;63.30;25.15;;;-2.80;99.90;;;;;;6146382;23;20028;-80
2022/12/17 23:41:18;;;;;;;59.85;24.17;;;-1.90;99.90;;;;;;6134398;23;20444;-80
2022/12/17 23:43:44;;;;;;;63.80;24.50;;;-2.80;99.90;;;;;;6106850;23;20029;-81
2022/12/17 23:46:11;;;;;;;68.15;24.38;;;-1.80;99.90;;;;;;6099036;23;20032;-80
2022/12/17 23:48:38;;;;;;;63.10;25.55;;;-2.70;99.90;;;;;;6121559;23;20124;-81
2022/12/17 23:51:05;;;;;;;63.22;24.67;;;-2.80;99.90;;;;;;6096646;23;20100;-81
2022/12/17 23:53:32;;;;;;;61.92;23.77;;;-2.80;99.90;;;;;;6120104;23;20064;-81
2022/12/17 23:56:13;;;;;;;59.05;24.30;;;-2.20;99.90;;;;;;6095683;23;20027;-80
2022/12/17 23:58:40;;;;;;;63.88;25.23;;;-2.80;99.90;;;;;;6120218;23;20057;-80
